LZSL

Sliač Airport

Sliač, Slovakia (Slovak Republic)
TAF LZSL 201700Z 2018/2103 18005KT CAVOK BECMG 2018/2020 VRB02KT
Issued Valid From Valid To
Apr-20 @ 17:00 UTC
(2 hours ago)
Apr-20 @ 18:00 UTC
(35 minutes ago)
Apr-21 @ 03:00 UTC
(in 8 hours)
Apr-20 @ 18:00 to Apr-21 @ 03:00
TAF LZSL 201700Z 2018/2103 18005KT CAVOK
Wind Visibility Clouds Conditions
180° at 5 knots 10,000+ meters
  • No significant clouds
Becoming Apr-20 @ 18:00 to Apr-21 @ 03:00
BECMG 2018/2020 VRB02KT
Wind Visibility Clouds Conditions
Variable at 2 knots 10,000+ meters
  • No significant clouds
TAF LZSL 201700Z 2018/2103 18005KT CAVOK BECMG 2018/2020 VRB02KT
Issued Apr-20 @ 17:00 UTC
(2 hours ago)
Valid From Apr-20 @ 18:00 UTC
(35 minutes ago)
Valid To Apr-21 @ 03:00 UTC
(in 8 hours)
Apr-20 @ 18:00 - Apr-21 @ 03:00
Wind Visibility
180° at 5 knots 10,000+ meters
Clouds
  • No significant clouds
Conditions
Becoming Apr-20 @ 18:00 - Apr-21 @ 03:00
Wind Visibility
Variable at 2 knots 10,000+ meters
Clouds
  • No significant clouds
Conditions